Time;durP1;ratioP1;P1;durP2;ratioP2;P2;SDS_P1;SDS_P2;PMS_P1;PMS_P2;Temp;Humidity;BMP_temperature;BMP_pressure;BME280_temperature;BME280_humidity;BME280_pressure;Samples;Min_cycle;Max_cycle;Signal;HPM_P1;HPM_P2
2022/12/30 00:00:56;;;;;;;2.53;0.40;;;;;;;7.13;100.00;153191.09;4991057;28;20452;-84
2022/12/30 00:03:43;;;;;;;1.43;0.47;;;;;;;7.11;100.00;153187.25;4979504;28;20434;-84
2022/12/30 00:06:29;;;;;;;1.10;0.50;;;;;;;7.11;100.00;153187.25;4975461;28;20462;-83
2022/12/30 00:09:14;;;;;;;0.80;0.30;;;;;;;7.08;100.00;153179.50;4989142;28;20523;-84
2022/12/30 00:33:06;;;;;;;0.80;0.40;;;;;;;7.09;100.00;153182.09;4983484;28;20459;-84
2022/12/30 00:33:30;;;;;;;0.87;0.50;;;;;;;7.07;100.00;153176.91;4991811;28;20469;-84
2022/12/30 00:36:17;;;;;;;1.10;0.70;;;;;;;7.05;100.00;153171.75;4983906;28;20458;-84
2022/12/30 00:39:03;;;;;;;0.87;0.53;;;;;;;7.05;100.00;153171.75;4990629;28;20454;-84
2022/12/30 00:44:52;;;;;;;1.10;0.50;;;;;;;7.06;100.00;153173.03;4979073;28;20861;-83
2022/12/30 00:47:37;;;;;;;1.80;0.50;;;;;;;7.00;100.00;153158.84;4980554;28;20585;-84
2022/12/30 00:56:30;;;;;;;1.07;0.40;;;;;;;7.06;100.00;153174.34;4987044;28;20488;-83
2022/12/30 00:59:19;;;;;;;1.20;0.60;;;;;;;7.05;100.00;153171.75;4988906;28;20999;-84
2022/12/30 01:02:04;;;;;;;1.47;0.70;;;;;;;7.04;100.00;153169.16;4988246;28;20462;-84
2022/12/30 01:04:49;;;;;;;0.90;0.50;;;;;;;6.99;100.00;153156.25;4989441;28;20441;-83
2022/12/30 01:07:34;;;;;;;4.40;0.80;;;;;;;7.01;100.00;153161.44;4983398;28;20972;-83
2022/12/30 01:10:21;;;;;;;1.00;0.53;;;;;;;6.97;100.00;153149.78;4974700;28;20452;-84
2022/12/30 01:13:07;;;;;;;0.97;0.47;;;;;;;6.94;100.00;153143.34;4977437;28;20445;-83
2022/12/30 01:15:52;;;;;;;1.00;0.50;;;;;;;6.90;100.00;153133.03;4988099;28;20574;-83
2022/12/30 01:18:38;;;;;;;1.17;0.60;;;;;;;6.88;100.00;153127.88;4991976;28;20505;-84
2022/12/30 01:21:23;;;;;;;0.97;0.70;;;;;;;6.86;100.00;153122.69;4981399;28;20441;-83
2022/12/30 01:24:09;;;;;;;1.10;0.50;;;;;;;6.87;100.00;153125.28;4991076;28;20444;-84
2022/12/30 01:26:55;;;;;;;1.67;0.57;;;;;;;6.88;100.00;153127.88;4980567;28;21033;-83
2022/12/30 01:29:42;;;;;;;0.90;0.47;;;;;;;6.84;100.00;153116.22;4976842;28;20441;-83
2022/12/30 01:32:29;;;;;;;1.10;0.60;;;;;;;6.87;100.00;153123.97;4990860;28;20456;-83
2022/12/30 01:35:15;;;;;;;1.67;0.50;;;;;;;6.86;100.00;153121.44;4987911;28;20475;-83
2022/12/30 01:38:00;;;;;;;0.90;0.47;;;;;;;6.85;100.00;153120.13;4983126;28;20472;-83
2022/12/30 01:40:46;;;;;;;1.47;0.63;;;;;;;6.88;100.00;153127.88;4991222;28;20438;-83
2022/12/30 01:43:45;;;;;;;1.40;0.47;;;;;;;6.87;100.00;153123.97;4978739;28;20949;-84
2022/12/30 01:46:31;;;;;;;1.10;0.40;;;;;;;6.85;100.00;153120.13;4978104;28;20451;-83
2022/12/30 01:49:17;;;;;;;0.83;0.50;;;;;;;6.83;100.00;153114.94;4983373;28;20522;-83
2022/12/30 01:52:02;;;;;;;1.40;0.30;;;;;;;6.80;100.00;153105.91;4991804;28;20465;-83
2022/12/30 01:54:49;;;;;;;0.83;0.30;;;;;;;6.77;100.00;153099.47;4979087;28;20559;-83
2022/12/30 01:57:34;;;;;;;1.10;0.50;;;;;;;6.77;100.00;153098.19;5001367;28;20453;-83
2022/12/30 02:00:20;;;;;;;0.80;0.40;;;;;;;6.76;100.00;153096.88;4993046;28;20915;-83
2022/12/30 02:03:07;;;;;;;0.80;0.30;;;;;;;6.73;100.00;153089.13;4991043;28;21237;-83
2022/12/30 02:05:52;;;;;;;1.00;0.40;;;;;;;6.71;100.00;153083.97;4992082;28;20436;-83
2022/12/30 02:08:37;;;;;;;0.77;0.33;;;;;;;6.70;100.00;153082.66;4995147;28;20761;-83
2022/12/30 02:11:23;;;;;;;0.70;0.37;;;;;;;6.69;100.00;153078.81;4996938;28;20427;-84
2022/12/30 02:14:09;;;;;;;1.63;0.30;;;;;;;6.68;100.00;153076.22;4993826;28;20488;-83
2022/12/30 02:17:01;;;;;;;0.80;0.40;;;;;;;6.61;100.00;153059.47;4994588;28;20430;-83
2022/12/30 02:20:19;;;;;;;2.10;0.53;;;;;;;6.57;100.00;153047.81;4995604;28;20462;-83
2022/12/30 02:23:23;;;;;;;0.80;0.40;;;;;;;6.53;100.00;153037.50;4988147;28;20448;-83
2022/12/30 02:26:27;;;;;;;0.70;0.37;;;;;;;6.55;100.00;153042.66;4995443;28;20915;-83
2022/12/30 02:29:23;;;;;;;1.23;0.60;;;;;;;6.49;100.00;153027.16;4994940;28;20471;-83
2022/12/30 02:32:19;;;;;;;0.73;0.40;;;;;;;6.45;100.00;153016.88;4983382;28;20463;-83
2022/12/30 02:35:08;;;;;;;0.80;0.40;;;;;;;6.41;100.00;153006.53;4979719;28;20474;-83
2022/12/30 02:37:58;;;;;;;0.70;0.40;;;;;;;6.37;100.00;152996.22;4979751;28;20552;-83
2022/12/30 02:46:59;;;;;;;0.90;0.50;;;;;;;6.26;100.00;152967.81;4991252;28;20809;-83
2022/12/30 02:52:14;;;;;;;1.10;0.70;;;;;;;6.27;100.00;152971.72;4993302;28;20448;-84
2022/12/30 02:52:54;;;;;;;1.00;0.47;;;;;;;6.24;100.00;152963.97;4989153;28;20967;-83
2022/12/30 02:55:40;;;;;;;0.80;0.40;;;;;;;6.21;100.00;152954.94;4995423;28;20492;-84
2022/12/30 02:58:28;;;;;;;1.27;0.73;;;;;;;6.20;100.00;152952.31;4993501;28;20465;-83
2022/12/30 03:04:50;;;;;;;1.00;0.60;;;;;;;6.18;100.00;152947.19;4993967;28;20464;-83
2022/12/30 03:07:39;;;;;;;1.10;0.40;;;;;;;6.10;100.00;152927.84;4980380;28;20959;-83
2022/12/30 03:13:36;;;;;;;0.80;0.40;;;;;;;6.03;100.00;152909.78;4994405;28;20464;-83
2022/12/30 03:16:26;;;;;;;0.73;0.30;;;;;;;6.03;100.00;152909.78;4993137;28;20460;-83
2022/12/30 03:19:15;;;;;;;0.90;0.50;;;;;;;6.00;100.00;152903.34;4988668;28;20480;-83
2022/12/30 03:22:02;;;;;;;0.93;0.40;;;;;;;5.91;100.00;152880.09;4982368;28;20450;-83
2022/12/30 03:27:50;;;;;;;0.90;0.40;;;;;;;5.80;100.00;152850.44;4986796;28;20449;-83
2022/12/30 03:30:40;;;;;;;1.00;0.40;;;;;;;5.74;100.00;152834.94;4992014;28;20641;-83
2022/12/30 03:33:26;;;;;;;1.80;0.60;;;;;;;5.70;100.00;152825.88;4990575;28;20437;-83
2022/12/30 03:36:14;;;;;;;1.00;0.50;;;;;;;5.68;100.00;152820.75;4988841;28;20449;-83
2022/12/30 03:39:03;;;;;;;1.50;0.50;;;;;;;5.69;100.00;152823.34;4989568;28;20494;-83
2022/12/30 03:41:50;;;;;;;1.53;0.43;;;;;;;5.68;100.00;152819.44;4994278;28;20460;-83
2022/12/30 03:44:36;;;;;;;1.07;0.47;;;;;;;5.65;100.00;152813.00;4992663;28;20453;-83
2022/12/30 03:47:21;;;;;;;0.90;0.50;;;;;;;5.62;100.00;152805.25;4993586;28;20461;-83
2022/12/30 03:50:08;;;;;;;0.90;0.40;;;;;;;5.65;100.00;152813.00;4991980;28;20450;-83
2022/12/30 03:52:53;;;;;;;0.80;0.43;;;;;;;5.64;100.00;152809.16;4992629;28;20652;-83
2022/12/30 03:55:40;;;;;;;0.90;0.50;;;;;;;5.62;100.00;152805.25;4993288;28;20470;-83
2022/12/30 03:58:25;;;;;;;1.20;0.50;;;;;;;5.57;100.00;152792.38;4993172;28;20767;-83
2022/12/30 04:01:11;;;;;;;1.30;0.67;;;;;;;5.53;100.00;152783.31;4993858;28;20436;-83
2022/12/30 04:03:56;;;;;;;2.83;0.73;;;;;;;5.48;100.00;152770.44;4993083;28;20885;-83
2022/12/30 04:06:41;;;;;;;1.10;0.50;;;;;;;5.46;100.00;152765.28;4979352;28;20509;-83
2022/12/30 04:09:27;;;;;;;1.30;0.60;;;;;;;5.48;100.00;152770.44;4985289;28;20489;-83
2022/12/30 04:12:14;;;;;;;3.90;2.03;;;;;;;5.44;100.00;152760.13;4991393;28;20506;-83
2022/12/30 04:14:59;;;;;;;2.40;1.30;;;;;;;5.40;100.00;152749.81;4990685;28;20516;-83
2022/12/30 04:17:44;;;;;;;1.57;1.07;;;;;;;5.39;100.00;152745.94;4993046;28;20493;-83
2022/12/30 04:20:30;;;;;;;1.20;0.50;;;;;;;5.36;100.00;152738.22;4986359;28;20481;-83
2022/12/30 04:23:16;;;;;;;0.90;0.40;;;;;;;5.33;100.00;152730.47;4973671;28;20458;-83
2022/12/30 04:26:01;;;;;;;1.00;0.50;;;;;;;5.31;100.00;152725.31;4988790;28;20547;-83
2022/12/30 04:28:48;;;;;;;0.90;0.60;;;;;;;5.26;100.00;152712.44;4991970;28;20490;-83
2022/12/30 04:31:33;;;;;;;1.07;0.57;;;;;;;5.23;100.00;152704.69;4989037;28;20453;-83
2022/12/30 04:34:18;;;;;;;0.80;0.30;;;;;;;5.23;100.00;152704.69;4992540;28;21047;-83
2022/12/30 04:37:04;;;;;;;0.97;0.70;;;;;;;5.22;100.00;152703.41;4984954;28;20445;-83
2022/12/30 04:39:49;;;;;;;1.37;0.50;;;;;;;5.15;100.00;152685.38;4990106;28;20461;-83
2022/12/30 04:42:34;;;;;;;1.40;0.70;;;;;;;5.16;100.00;152687.97;4973471;28;20932;-83
2022/12/30 04:45:21;;;;;;;1.93;0.80;;;;;;;5.12;100.00;152677.63;4988586;28;20960;-83
2022/12/30 04:48:07;;;;;;;0.70;0.30;;;;;;;5.13;100.00;152678.94;4985157;28;20452;-83
2022/12/30 04:50:52;;;;;;;1.00;0.50;;;;;;;5.14;100.00;152681.47;4990241;28;20774;-83
2022/12/30 04:53:37;;;;;;;1.00;0.50;;;;;;;5.14;100.00;152682.78;4992255;28;20445;-83
2022/12/30 04:56:22;;;;;;;0.90;0.60;;;;;;;5.12;100.00;152676.31;4989627;28;20453;-83
2022/12/30 04:59:08;;;;;;;1.40;0.50;;;;;;;5.10;100.00;152672.47;4990519;28;20616;-83
2022/12/30 05:01:54;;;;;;;0.80;0.37;;;;;;;5.10;100.00;152671.19;4987839;28;20453;-84
2022/12/30 05:04:40;;;;;;;1.00;0.40;;;;;;;5.12;100.00;152676.31;4989792;28;20437;-84
2022/12/30 05:07:25;;;;;;;1.00;0.50;;;;;;;5.11;100.00;152673.78;4992823;28;20524;-84
2022/12/30 05:10:10;;;;;;;0.90;0.50;;;;;;;5.08;100.00;152666.03;4991259;28;20476;-83
2022/12/30 05:12:56;;;;;;;1.20;0.60;;;;;;;5.05;100.00;152658.31;4973554;28;20514;-83
2022/12/30 05:15:41;;;;;;;1.67;0.50;;;;;;;5.08;100.00;152666.03;4981289;28;20433;-83
2022/12/30 05:18:28;;;;;;;0.90;0.50;;;;;;;5.08;100.00;152667.34;4991935;28;21063;-84
2022/12/30 05:21:13;;;;;;;1.27;0.60;;;;;;;5.01;100.00;152649.25;4984972;28;20602;-83
2022/12/30 05:27:01;;;;;;;1.10;0.60;;;;;;;5.04;100.00;152655.69;4991786;28;20444;-83
2022/12/30 05:29:47;;;;;;;1.93;0.60;;;;;;;4.95;100.00;152633.78;5001749;28;20448;-84
2022/12/30 05:32:32;;;;;;;2.20;0.60;;;;;;;4.93;100.00;152629.94;4992059;28;20445;-83
2022/12/30 05:35:19;;;;;;;1.10;0.60;;;;;;;4.89;100.00;152618.34;4991297;28;20470;-83
2022/12/30 05:38:04;;;;;;;1.37;0.67;;;;;;;4.85;100.00;152608.03;4983341;28;20464;-84
2022/12/30 05:40:51;;;;;;;1.30;0.70;;;;;;;4.82;100.00;152601.56;4989224;28;20516;-84
2022/12/30 05:43:36;;;;;;;1.20;0.70;;;;;;;4.78;100.00;152590.00;4994222;28;20433;-84
2022/12/30 05:46:21;;;;;;;1.30;0.50;;;;;;;4.75;100.00;152582.25;4992804;28;20460;-84
2022/12/30 05:49:07;;;;;;;0.83;0.50;;;;;;;4.75;100.00;152583.56;4982038;28;20967;-83
2022/12/30 05:51:53;;;;;;;0.90;0.60;;;;;;;4.73;100.00;152578.41;4978810;28;20976;-84
2022/12/30 05:54:39;;;;;;;0.80;0.40;;;;;;;4.72;100.00;152575.81;4994740;28;20486;-84
2022/12/30 05:57:24;;;;;;;2.43;0.80;;;;;;;4.72;100.00;152575.81;4993518;28;20456;-83
2022/12/30 06:00:11;;;;;;;0.80;0.40;;;;;;;4.69;100.00;152568.06;4991820;28;20456;-84
2022/12/30 06:02:56;;;;;;;0.90;0.40;;;;;;;4.71;100.00;152573.22;4989786;28;20683;-83
2022/12/30 06:05:42;;;;;;;1.10;0.50;;;;;;;4.65;100.00;152557.78;4983356;28;20453;-84
2022/12/30 06:08:29;;;;;;;1.10;0.60;;;;;;;4.65;100.00;152557.78;4982650;28;20487;-84
2022/12/30 06:11:14;;;;;;;1.40;0.80;;;;;;;4.59;100.00;152542.31;4981782;28;20530;-84
2022/12/30 06:14:00;;;;;;;1.10;0.80;;;;;;;4.55;100.00;152532.03;4983615;28;20456;-84
2022/12/30 06:16:45;;;;;;;1.60;0.80;;;;;;;4.53;100.00;152525.53;4982359;28;20456;-84
2022/12/30 06:19:30;;;;;;;1.10;0.60;;;;;;;4.51;100.00;152521.69;4995595;28;20460;-84
2022/12/30 06:22:16;;;;;;;1.23;0.77;;;;;;;4.46;100.00;152508.81;4981410;28;20482;-84
2022/12/30 06:25:02;;;;;;;1.50;1.10;;;;;;;4.48;100.00;152512.66;4995460;28;20481;-84
2022/12/30 06:27:47;;;;;;;1.07;0.70;;;;;;;4.44;100.00;152503.69;4983902;28;20460;-84
2022/12/30 06:30:33;;;;;;;1.10;0.73;;;;;;;4.41;100.00;152495.94;4982171;28;20794;-84
2022/12/30 06:33:19;;;;;;;1.10;0.70;;;;;;;4.41;100.00;152494.66;4944368;28;1120085;-84
2022/12/30 06:36:05;;;;;;;1.30;0.90;;;;;;;4.40;100.00;152493.34;4983769;28;20522;-84
2022/12/30 06:38:50;;;;;;;1.10;0.70;;;;;;;4.38;100.00;152486.91;4983261;28;20565;-84
2022/12/30 06:41:37;;;;;;;1.20;0.70;;;;;;;4.37;100.00;152485.63;4984486;28;20451;-84
2022/12/30 06:44:22;;;;;;;1.10;0.80;;;;;;;4.36;100.00;152483.06;4987254;28;20799;-84
2022/12/30 06:47:07;;;;;;;1.00;0.70;;;;;;;4.34;100.00;152477.94;4983449;28;20463;-84
2022/12/30 06:49:53;;;;;;;1.83;0.80;;;;;;;4.41;100.00;152494.66;4986228;28;20943;-84
2022/12/30 06:52:38;;;;;;;2.00;0.50;;;;;;;4.40;100.00;152493.34;4988003;28;20456;-84
2022/12/30 06:55:23;;;;;;;1.40;1.00;;;;;;;4.41;100.00;152495.94;4984829;28;20445;-84
2022/12/30 06:58:10;;;;;;;1.23;0.80;;;;;;;4.41;100.00;152494.66;4983622;28;20588;-84
2022/12/30 07:00:55;;;;;;;1.37;0.60;;;;;;;4.41;100.00;152494.66;4983323;28;20602;-84
2022/12/30 07:03:40;;;;;;;1.80;0.80;;;;;;;4.42;100.00;152497.25;4985638;28;20484;-84
2022/12/30 07:06:26;;;;;;;1.03;0.70;;;;;;;4.42;100.00;152498.50;4980551;28;20453;-84
2022/12/30 07:09:11;;;;;;;1.00;0.70;;;;;;;4.42;100.00;152498.50;4983029;28;20449;-84
2022/12/30 07:11:57;;;;;;;1.80;0.73;;;;;;;4.36;100.00;152481.78;4982824;28;20618;-83
2022/12/30 07:14:44;;;;;;;1.07;0.67;;;;;;;4.35;100.00;152480.47;4995002;28;20937;-83
2022/12/30 07:17:29;;;;;;;0.87;0.63;;;;;;;4.39;100.00;152490.81;4981286;28;20461;-84
2022/12/30 07:20:14;;;;;;;1.30;0.60;;;;;;;4.35;100.00;152480.47;4983841;28;20876;-84
2022/12/30 07:23:00;;;;;;;1.40;0.60;;;;;;;4.31;100.00;152471.44;4984962;28;20480;-83
2022/12/30 07:25:47;;;;;;;1.20;0.80;;;;;;;4.39;100.00;152489.50;4982288;28;20576;-84
2022/12/30 07:28:32;;;;;;;2.63;1.37;;;;;;;4.38;100.00;152488.22;4982901;28;20444;-83
2022/12/30 07:31:18;;;;;;;1.30;1.00;;;;;;;4.40;100.00;152493.34;4982921;28;21132;-84
2022/12/30 07:34:04;;;;;;;1.57;1.13;;;;;;;4.32;100.00;152474.03;4982612;28;20476;-83
2022/12/30 07:36:49;;;;;;;2.33;1.13;;;;;;;4.38;100.00;152488.22;4980284;28;20466;-83
2022/12/30 07:39:35;;;;;;;1.37;0.93;;;;;;;4.43;100.00;152501.09;4985796;28;20441;-84
2022/12/30 07:42:20;;;;;;;1.30;0.90;;;;;;;4.49;100.00;152515.25;4985756;28;20473;-84
2022/12/30 07:45:08;;;;;;;1.60;1.17;;;;;;;4.57;100.00;152537.19;4981737;28;20964;-84
2022/12/30 07:47:54;;;;;;;2.53;1.43;;;;;;;4.62;100.00;152550.06;4982779;28;20478;-84
2022/12/30 07:50:40;;;;;;;2.60;1.80;;;;;;;4.69;100.00;152568.06;4983557;28;20437;-84
2022/12/30 07:53:25;;;;;;;3.30;2.20;;;;;;;4.72;100.00;152574.50;4982838;28;20449;-83
2022/12/30 07:56:13;;;;;;;3.13;1.80;;;;;;;4.79;100.00;152593.84;4995637;28;20539;-83
2022/12/30 07:58:59;;;;;;;1.60;1.30;;;;;;;4.77;100.00;152588.69;4995198;28;20524;-84
2022/12/30 08:01:44;;;;;;;1.60;1.40;;;;;;;4.80;100.00;152596.44;4981765;28;20476;-84
2022/12/30 08:04:31;;;;;;;1.70;1.30;;;;;;;4.87;100.00;152614.47;4980884;28;20943;-84
2022/12/30 08:07:16;;;;;;;2.33;1.50;;;;;;;4.91;100.00;152623.50;4985711;28;20516;-84
2022/12/30 08:10:02;;;;;;;3.30;1.90;;;;;;;4.98;100.00;152641.53;4981505;28;20795;-84
2022/12/30 08:12:48;;;;;;;2.13;1.43;;;;;;;5.03;100.00;152653.16;4981335;28;20980;-84
2022/12/30 08:15:33;;;;;;;1.70;1.37;;;;;;;5.07;100.00;152663.44;4981886;28;20448;-84
2022/12/30 08:18:18;;;;;;;2.10;1.43;;;;;;;5.09;100.00;152668.59;4983635;28;20574;-83
2022/12/30 08:21:07;;;;;;;2.00;1.43;;;;;;;5.17;100.00;152690.50;4981922;28;20480;-84
2022/12/30 08:23:52;;;;;;;2.90;1.57;;;;;;;5.19;100.00;152694.41;4981452;28;20589;-83
2022/12/30 08:26:38;;;;;;;2.50;1.20;;;;;;;5.22;100.00;152702.09;4996469;28;20951;-84
2022/12/30 08:29:23;;;;;;;1.50;1.27;;;;;;;5.27;100.00;152715.03;4982338;28;20440;-84
2022/12/30 08:32:08;;;;;;;2.10;1.63;;;;;;;5.34;100.00;152733.06;4996091;28;20922;-84
2022/12/30 08:34:54;;;;;;;1.63;1.50;;;;;;;5.43;100.00;152756.25;4981916;28;20469;-84
2022/12/30 08:37:41;;;;;;;1.97;1.70;;;;;;;5.52;100.00;152779.47;4981813;28;20593;-84
2022/12/30 08:40:26;;;;;;;1.60;1.50;;;;;;;5.59;100.00;152797.50;4982774;28;20866;-84
2022/12/30 08:43:12;;;;;;;1.77;1.40;;;;;;;5.62;100.00;152803.97;4985399;28;20448;-84
2022/12/30 08:45:57;;;;;;;2.83;1.67;;;;;;;5.69;100.00;152822.03;4981203;28;20456;-84
2022/12/30 08:48:43;;;;;;;2.50;1.53;;;;;;;5.69;100.00;152823.34;4993790;28;20441;-84
2022/12/30 08:51:29;;;;;;;2.20;1.57;;;;;;;5.73;100.00;152832.34;4983888;28;20456;-84
2022/12/30 08:54:16;;;;;;;6.50;1.50;;;;;;;5.73;100.00;152833.63;4986632;28;20448;-84
2022/12/30 08:57:02;;;;;;;1.60;1.13;;;;;;;5.73;100.00;152832.34;4996042;28;20461;-84
2022/12/30 08:59:47;;;;;;;2.43;2.00;;;;;;;5.82;100.00;152856.88;4979533;28;20463;-84
2022/12/30 09:02:33;;;;;;;4.33;3.10;;;;;;;5.90;100.00;152876.25;4983031;28;20444;-84
2022/12/30 09:05:19;;;;;;;2.13;1.50;;;;;;;5.85;100.00;152864.63;4994141;28;20514;-84
2022/12/30 09:08:05;;;;;;;3.40;2.07;;;;;;;5.85;100.00;152864.63;4981516;28;20457;-84
2022/12/30 09:10:59;;;;;;;2.20;1.40;;;;;;;5.86;100.00;152867.22;4982785;28;20581;-84
2022/12/30 09:13:44;;;;;;;1.57;1.47;;;;;;;5.90;100.00;152876.25;4980943;28;20532;-83
2022/12/30 09:16:31;;;;;;;4.57;1.87;;;;;;;5.90;100.00;152877.56;4982571;28;20810;-84
2022/12/30 09:19:17;;;;;;;4.97;3.43;;;;;;;5.92;100.00;152882.69;4980704;28;20479;-83
2022/12/30 09:22:02;;;;;;;13.00;7.00;;;;;;;5.92;100.00;152882.69;4981366;28;20471;-83
2022/12/30 09:24:47;;;;;;;8.60;5.93;;;;;;;5.94;100.00;152887.84;4981439;28;20442;-83
2022/12/30 09:27:34;;;;;;;3.10;2.60;;;;;;;5.98;100.00;152898.16;4982878;28;20453;-83
2022/12/30 09:30:20;;;;;;;3.80;2.70;;;;;;;5.97;100.00;152895.59;4992102;28;20514;-84
2022/12/30 09:33:06;;;;;;;3.57;2.70;;;;;;;6.05;100.00;152914.94;4982426;28;20573;-84
2022/12/30 09:35:51;;;;;;;4.67;3.00;;;;;;;6.01;100.00;152905.88;4982312;28;20444;-84
2022/12/30 09:38:36;;;;;;;2.77;2.53;;;;;;;6.07;100.00;152921.38;4983024;28;20520;-83
2022/12/30 09:44:41;;;;;;;4.30;2.20;;;;;;;6.14;100.00;152939.44;4978488;28;20444;-83
2022/12/30 09:47:28;;;;;;;3.47;2.50;;;;;;;6.23;100.00;152960.06;4978991;28;20622;-83
2022/12/30 09:50:20;;;;;;;3.20;2.40;;;;;;;6.31;100.00;152982.03;4979865;28;20494;-83
2022/12/30 09:53:13;;;;;;;4.03;2.70;;;;;;;6.34;100.00;152988.47;4980880;28;20446;-83
2022/12/30 09:56:01;;;;;;;5.50;2.40;;;;;;;6.36;100.00;152993.63;4982487;28;20468;-83
2022/12/30 09:58:46;;;;;;;2.47;1.93;;;;;;;6.42;100.00;153009.13;4984499;28;20666;-83
2022/12/30 10:01:38;;;;;;;1.80;1.70;;;;;;;6.40;100.00;153003.97;4984599;28;20476;-83
2022/12/30 10:04:24;;;;;;;2.37;2.03;;;;;;;6.40;100.00;153003.97;4982796;28;20956;-83
2022/12/30 10:07:16;;;;;;;2.77;2.30;;;;;;;6.43;100.00;153011.72;4984998;28;20535;-83
2022/12/30 10:10:04;;;;;;;3.03;2.70;;;;;;;6.48;100.00;153024.63;4979931;28;20437;-83
2022/12/30 10:12:55;;;;;;;3.10;1.90;;;;;;;6.51;100.00;153032.38;4979374;28;20585;-83
2022/12/30 10:15:49;;;;;;;2.60;2.20;;;;;;;6.61;100.00;153058.16;4979271;28;21131;-83
2022/12/30 10:18:56;;;;;;;2.53;2.00;;;;;;;6.63;100.00;153064.63;4981301;28;20610;-83
2022/12/30 10:21:47;;;;;;;2.40;2.07;;;;;;;6.64;100.00;153067.22;4980280;28;20488;-83
2022/12/30 10:24:43;;;;;;;2.40;2.00;;;;;;;6.67;100.00;153073.66;4984074;28;20791;-83
2022/12/30 10:27:33;;;;;;;2.53;1.90;;;;;;;6.93;100.00;153140.78;4984179;28;20456;-83
2022/12/30 10:30:21;;;;;;;2.47;2.00;;;;;;;6.97;100.00;153151.09;4982643;28;20493;-83
2022/12/30 10:33:09;;;;;;;2.80;2.20;;;;;;;6.95;100.00;153145.94;4986153;28;20657;-83
2022/12/30 10:36:00;;;;;;;1.50;1.40;;;;;;;7.06;100.00;153174.34;4984744;28;20573;-83
2022/12/30 10:38:46;;;;;;;1.20;1.00;;;;;;;7.14;100.00;153193.72;4991186;28;21728;-83
2022/12/30 10:41:38;;;;;;;1.37;0.83;;;;;;;7.23;100.00;153216.91;4987776;28;20479;-83
2022/12/30 10:44:28;;;;;;;1.60;1.30;;;;;;;7.19;100.00;153207.91;4986829;28;20489;-84
2022/12/30 10:47:26;;;;;;;2.10;1.60;;;;;;;7.16;100.00;153200.16;4984558;28;20465;-84
2022/12/30 10:50:21;;;;;;;1.70;1.00;;;;;;;7.23;100.00;153218.22;4982763;28;20800;-83
2022/12/30 10:53:12;;;;;;;2.80;0.97;;;;;;;7.33;100.00;153244.03;4985630;28;20449;-83
2022/12/30 10:55:59;;;;;;;1.63;0.87;;;;;;;7.42;100.00;153264.69;4984523;28;20536;-83
2022/12/30 10:58:46;;;;;;;1.33;1.20;;;;;;;7.47;100.00;153277.63;4986842;28;20445;-83
2022/12/30 11:01:34;;;;;;;1.73;1.30;;;;;;;7.52;100.00;153290.56;4985512;28;20697;-83
2022/12/30 11:04:34;;;;;;;2.50;1.27;;;;;;;7.67;100.00;153329.31;4986377;28;20438;-84
2022/12/30 11:07:20;;;;;;;1.33;0.90;;;;;;;7.61;100.00;153313.78;4986323;28;20449;-83
2022/12/30 11:10:20;;;;;;;1.67;1.27;;;;;;;7.61;100.00;153313.78;4984206;28;20451;-84
2022/12/30 11:16:10;;;;;;;1.60;1.23;;;;;;;7.65;100.00;153325.41;4984931;28;20999;-84
2022/12/30 11:18:57;;;;;;;1.63;1.23;;;;;;;7.65;100.00;153324.16;4990368;28;20449;-84
2022/12/30 11:21:43;;;;;;;1.93;1.13;;;;;;;7.65;100.00;153325.41;4981849;28;20642;-83
2022/12/30 11:24:28;;;;;;;2.07;1.10;;;;;;;7.70;100.00;153338.38;4988223;28;20801;-83
2022/12/30 11:27:15;;;;;;;3.20;1.30;;;;;;;7.66;100.00;153326.72;4987820;28;20460;-83
2022/12/30 11:30:00;;;;;;;2.23;1.30;;;;;;;7.65;100.00;153324.16;4983386;28;20446;-83
2022/12/30 11:32:46;;;;;;;1.90;1.70;;;;;;;7.59;100.00;153309.94;4985553;28;20460;-83
2022/12/30 11:35:37;;;;;;;2.00;1.80;;;;;;;7.55;100.00;153298.28;4983319;28;20515;-83
2022/12/30 11:38:32;;;;;;;2.03;1.37;;;;;;;7.68;100.00;153331.84;4982765;28;20442;-83
2022/12/30 11:41:24;;;;;;;1.83;1.40;;;;;;;7.77;100.00;153355.13;4980874;28;20533;-83
2022/12/30 11:44:15;;;;;;;2.30;1.60;;;;;;;7.69;100.00;153334.47;4981257;28;20937;-83
2022/12/30 11:47:05;;;;;;;1.90;1.60;;;;;;;7.71;100.00;153339.63;4983172;28;20449;-83
2022/12/30 11:49:53;;;;;;;1.50;1.40;;;;;;;7.84;100.00;153374.50;4982721;28;20577;-83
2022/12/30 11:52:39;;;;;;;2.23;1.47;;;;;;;7.82;100.00;153368.03;4984244;28;20463;-84
2022/12/30 11:55:25;;;;;;;2.03;1.43;;;;;;;7.72;100.00;153343.53;4982645;28;20446;-84
2022/12/30 11:58:12;;;;;;;1.63;1.00;;;;;;;7.83;100.00;153370.66;4981726;28;20427;-84
2022/12/30 12:01:04;;;;;;;2.33;1.20;;;;;;;7.81;100.00;153365.50;4982180;28;21065;-84
2022/12/30 12:03:51;;;;;;;2.87;1.30;;;;;;;7.88;100.00;153384.88;4981293;28;20462;-83
2022/12/30 12:06:50;;;;;;;1.87;1.27;;;;;;;7.89;100.00;153387.41;4984110;28;20972;-83
2022/12/30 12:09:38;;;;;;;1.50;1.20;;;;;;;8.02;100.00;153419.75;4984035;28;20451;-83
2022/12/30 12:12:27;;;;;;;2.23;1.37;;;;;;;7.98;100.00;153409.41;4979875;28;20797;-83
2022/12/30 12:15:24;;;;;;;1.80;1.50;;;;;;;8.07;100.00;153432.66;4994834;28;20844;-83
2022/12/30 12:18:15;;;;;;;1.93;1.47;;;;;;;8.20;100.00;153464.97;4982011;28;20470;-83
2022/12/30 12:21:08;;;;;;;2.03;1.50;;;;;;;8.14;100.00;153450.75;4982017;28;20538;-83
2022/12/30 12:24:02;;;;;;;3.23;1.60;;;;;;;8.18;100.00;153461.06;4983672;28;20438;-83
2022/12/30 12:26:53;;;;;;;2.00;1.43;;;;;;;8.16;99.92;153455.91;4984719;28;20453;-83
2022/12/30 12:29:39;;;;;;;1.57;1.07;;;;;;;8.15;100.00;153452.03;4981922;28;20958;-84
2022/12/30 12:32:54;;;;;;;2.37;1.30;;;;;;;8.20;98.56;153464.97;4992462;28;20450;-83
2022/12/30 12:35:48;;;;;;;1.30;1.03;;;;;;;8.17;98.87;153457.19;4997135;28;21092;-83
2022/12/30 12:38:47;;;;;;;1.67;1.20;;;;;;;8.19;98.45;153463.66;4986880;28;20532;-85
2022/12/30 12:41:55;;;;;;;2.20;1.53;;;;;;;8.20;98.26;153464.97;4989076;28;20474;-83
2022/12/30 12:45:06;;;;;;;2.60;1.33;;;;;;;8.11;99.26;153441.69;4982414;28;20442;-84
2022/12/30 12:48:11;;;;;;;2.20;1.00;;;;;;;8.16;98.89;153455.91;4980306;28;20456;-84
2022/12/30 12:51:07;;;;;;;1.60;1.10;;;;;;;8.22;98.78;153470.13;4980301;28;20732;-83
2022/12/30 12:54:05;;;;;;;2.50;1.43;;;;;;;8.22;98.89;153470.13;4980434;28;20466;-83
2022/12/30 12:57:01;;;;;;;2.10;1.20;;;;;;;8.29;98.94;153489.56;4980035;28;20507;-83
2022/12/30 13:00:07;;;;;;;2.37;1.37;;;;;;;8.36;99.11;153507.69;4980508;28;20947;-83
2022/12/30 13:03:26;;;;;;;1.90;1.40;;;;;;;8.31;98.21;153493.47;4979485;28;20474;-83
2022/12/30 13:06:21;;;;;;;1.57;1.10;;;;;;;8.24;98.28;153476.59;4974940;28;20582;-84
2022/12/30 13:09:39;;;;;;;2.70;1.03;;;;;;;8.22;98.97;153471.44;4983898;28;20963;-83
2022/12/30 13:12:28;;;;;;;3.23;1.70;;;;;;;8.25;98.73;153479.19;4995326;28;21882;-84
2022/12/30 13:15:22;;;;;;;2.23;1.50;;;;;;;8.24;99.17;153476.59;4979742;28;20442;-84
2022/12/30 13:18:13;;;;;;;1.37;1.00;;;;;;;8.28;98.37;153487.00;4981841;28;20886;-84
2022/12/30 13:21:02;;;;;;;1.80;1.00;;;;;;;8.38;98.24;153512.84;4981508;28;20532;-83
2022/12/30 13:23:51;;;;;;;2.13;1.23;;;;;;;8.39;98.14;153515.38;4979950;28;20947;-83
2022/12/30 13:26:36;;;;;;;1.57;1.10;;;;;;;8.40;97.34;153518.00;4979907;28;20474;-83
2022/12/30 13:29:22;;;;;;;2.67;1.00;;;;;;;8.49;97.17;153541.28;4981357;28;20533;-83
2022/12/30 13:32:13;;;;;;;1.60;0.90;;;;;;;8.38;97.54;153512.84;4981264;28;20480;-83
2022/12/30 13:35:06;;;;;;;1.70;1.10;;;;;;;8.35;98.12;153503.78;4978733;28;20505;-83
2022/12/30 13:37:57;;;;;;;1.83;1.00;;;;;;;8.36;97.99;153506.38;4979071;28;20531;-83
2022/12/30 13:40:54;;;;;;;1.90;1.07;;;;;;;8.41;97.89;153520.59;4981778;28;20960;-83
2022/12/30 13:43:42;;;;;;;1.70;1.03;;;;;;;8.54;97.27;153552.91;4981035;28;20587;-84
2022/12/30 13:46:29;;;;;;;2.37;1.30;;;;;;;8.46;97.81;153532.22;4984258;28;20582;-83
2022/12/30 13:49:21;;;;;;;1.50;1.10;;;;;;;8.49;97.84;153541.28;4983450;28;20803;-83
2022/12/30 13:52:17;;;;;;;1.10;0.97;;;;;;;8.48;97.57;153537.38;5002217;28;20453;-84
2022/12/30 13:55:03;;;;;;;2.73;1.03;;;;;;;8.58;97.57;153563.22;4982109;28;21047;-83
2022/12/30 13:57:52;;;;;;;2.07;1.30;;;;;;;8.55;97.02;153555.50;4983548;28;20462;-83